• Join FlightAware (Why Join?)
  • Login
  • US Flag 
03:36PM EDT


 

Airport Tracker/Info


-or-


 

Live Flight TrackerFlight Track Log ✈ HL-7403 ✈ 06-Apr-2013 ✈ RKSI / ICN - PANC

Flight Track Log - Related Links

Times and Time Zones

All times are in EDT time to prevent confusion due to time zone crossing. See the HL-7403 flight status page for this flight to view local times or setup timezone preferences in your user account.

Time Position Orientation Groundspeed Altitude Reporting Facility
EDT Latitude Longitude Course Direction KTS MPH feet Rate Location/Type
10:22AM 37.3330 126.5660 78° East 335 386 12,200  Level FlightAware
10:22AM 37.3420 126.6170 77° East 361 415 12,600 1,020 Climbing FlightAware
10:23AM 37.3610 126.7210 77° East 395 455 13,500 1,680 Climbing FlightAware
10:24AM 37.3870 126.8570 76° East 410 472 15,600 2,040 Climbing FlightAware
10:25AM 37.4040 126.9470 77° East 419 482 16,800 2,040 Climbing FlightAware
10:25AM 37.4190 127.0330 78° East 427 491 18,000 1,920 Climbing FlightAware
10:26AM 37.4340 127.1190 78° East 431 496 19,100 1,920 Climbing FlightAware
10:27AM 37.4400 127.2470 87° East 429 494 20,800 2,100 Climbing FlightAware
10:27AM 37.4450 127.3310 86° East 427 491 22,100 1,800 Climbing FlightAware
10:28AM 37.4510 127.4080 84° East 434 499 22,800 960 Climbing FlightAware
10:28AM 37.4600 127.5220 84° East 456 525 23,300 780 Climbing FlightAware
10:29AM 37.4660 127.6080 85° East 466 536 23,800 1,200 Climbing FlightAware
10:29AM 37.4710 127.6840 85° East 469 540 24,500 1,080 Climbing FlightAware
10:30AM 37.4800 127.8240 85° East 483 556 25,300 960 Climbing FlightAware
10:31AM 37.4850 127.9090 86° East 490 564 25,800 600 Climbing FlightAware
10:31AM 37.4900 128.0000 86° East 491 565 26,000 180 Climbing FlightAware
10:32AM 37.4940 128.0730 86° East 491 565 26,000  Level FlightAware
10:32AM 37.4990 128.1700 86° East 491 565 26,000  Level FlightAware
10:33AM 37.5030 128.2430 86° East 491 565 26,000  Level FlightAware
10:34AM 37.5100 128.3640 86° East 491 565 26,000  Level FlightAware
10:34AM 37.5140 128.4370 86° East 491 565 26,000  Level FlightAware
10:35AM 37.5180 128.5100 86° East 491 565 26,000 60 Level FlightAware
10:37AM 37.7228 128.6997 108° East  Level Estimated
10:38AM 37.8397 128.8085 99° East  Level Estimated
10:39AM 37.7831 128.9777 113° Southeast  Level FlightAware Approximate
10:40AM 37.7262 129.1465 113° Southeast  Level FlightAware Approximate
10:41AM 37.6691 129.3152 113° Southeast  Level FlightAware Approximate
10:42AM 37.7859 129.4241 98° East  Level Estimated
10:43AM 37.7481 129.6014 105° East  Level FlightAware Approximate
10:44AM 37.7101 129.7785 105° East  Level FlightAware Approximate
10:45AM 37.6717 129.9554 105° East  Level FlightAware Approximate
10:46AM 37.6332 130.1321 105° East  Level FlightAware Approximate
10:47AM 37.5943 130.3086 105° East  Level FlightAware Approximate
10:48AM 37.5552 130.4850 106° East  Level FlightAware Approximate
10:49AM 37.5158 130.6611 106° East  Level FlightAware Approximate
10:50AM 37.4762 130.8371 106° East  Level FlightAware Approximate
10:51AM 37.5928 130.9460 37° Northeast  Level Estimated
10:52AM 37.6051 131.1286 85° East  Level FlightAware Approximate
10:53AM 37.6171 131.3112 85° East  Level FlightAware Approximate
10:54AM 37.7335 131.4206 84° East  Level Estimated
10:55AM 37.7346 131.6041 90° East  Level FlightAware Approximate
10:56AM 37.7353 131.7876 90° East  Level FlightAware Approximate
10:57AM 37.7358 131.9712 90° East  Level FlightAware Approximate
10:58AM 37.7360 132.1547 90° East  Level FlightAware Approximate
10:59AM 37.7359 132.3382 90° East  Level FlightAware Approximate
11:00AM 37.7355 132.5217 90° East  Level FlightAware Approximate
11:01AM 37.8517 132.6319 87° East  Level Estimated
11:02AM 37.8301 132.8136 99° East  Level FlightAware Approximate
11:03AM 37.8082 132.9952 99° East  Level FlightAware Approximate
11:04AM 37.9242 133.1057 86° East  Level Estimated
11:05AM 37.9271 133.2897 89° East  Level FlightAware Approximate
11:06AM 37.9297 133.4736 89° East  Level FlightAware Approximate
11:07AM 37.9321 133.6576 89° East  Level FlightAware Approximate
11:08AM 37.9341 133.8416 89° East  Level FlightAware Approximate
11:09AM 37.9359 134.0256 89° East  Level FlightAware Approximate
11:10AM 37.9374 134.2096 89° East  Level FlightAware Approximate
11:11AM 37.9386 134.3936 89° East  Level FlightAware Approximate
11:12AM 37.9395 134.5777 90° East  Level FlightAware Approximate
11:13AM 37.9402 134.7617 90° East  Level FlightAware Approximate
11:14AM 37.9405 134.9457 90° East  Level FlightAware Approximate
11:15AM 37.9406 135.1297 90° East  Level FlightAware Approximate
11:16AM 37.9403 135.3138 90° East  Level FlightAware Approximate
11:17AM 37.9398 135.4978 90° East  Level FlightAware Approximate
11:18AM 37.9390 135.6818 90° East  Level FlightAware Approximate
11:19AM 37.9379 135.8658 90° East  Level FlightAware Approximate
11:20AM 37.9365 136.0499 90° East  Level FlightAware Approximate
11:21AM 37.9349 136.2339 91° East  Level FlightAware Approximate
11:22AM 37.9329 136.4179 91° East  Level FlightAware Approximate
11:22AM 37.9100 137.0820 91° East 31,000  Level FlightAware
11:23AM 37.9307 136.6019 91° East  Level FlightAware Approximate
11:23AM 37.9220 137.2250 84° East 510 587 31,000  Level FlightAware
11:24AM 37.9320 137.3460 84° East 506 582 31,000  Level FlightAware
11:25AM 37.9430 137.4760 84° East 504 580 31,000  Level FlightAware
11:25AM 37.9530 137.5930 84° East 502 578 31,000  Level FlightAware
11:26AM 37.9620 137.7070 84° East 502 578 31,000  Level FlightAware
11:27AM 37.9720 137.8390 84° East 501 577 31,000  Level FlightAware
11:27AM 37.9810 137.9550 84° East 501 577 31,000  Level FlightAware
11:28AM 37.9910 138.0720 84° East 502 578 31,000  Level FlightAware
11:29AM 38.0000 138.1930 85° East 503 579 31,000  Level FlightAware
11:29AM 38.0100 138.3250 84° East 507 583 31,000  Level FlightAware
11:30AM 38.0180 138.4290 84° East 510 587 31,000  Level FlightAware
11:31AM 38.0260 138.5340 84° East 512 589 31,000  Level FlightAware
11:31AM 38.0350 138.6560 85° East 513 590 31,000  Level FlightAware
11:32AM 38.0420 138.7580 85° East 515 593 31,000  Level FlightAware
11:34AM 38.0680 139.1190 85° East 514 592 31,000  Level FlightAware
11:35AM 38.0760 139.2420 85° East 513 590 31,000  Level FlightAware
11:35AM 38.0840 139.3550 85° East 510 587 31,000  Level FlightAware
11:36AM 38.0900 139.4540 86° East 510 587 31,000  Level FlightAware
11:37AM 38.0990 139.5880 85° East 511 588 31,000  Level FlightAware
11:37AM 38.1090 139.7460 85° East 512 589 31,000  Level FlightAware
11:38AM 38.1160 139.8570 85° East 509 586 31,000  Level FlightAware
11:41AM 38.4030 140.1397 38° Northeast  Level Estimated
11:42AM 38.5176 140.2534 38° Northeast  Level Estimated
11:42AM 38.1590 140.5850 38° Northeast 504 580 31,000  Level FlightAware
11:43AM 38.1700 140.7780 86° East 508 585 31,000  Level FlightAware
11:44AM 38.1780 140.9330 86° East 511 588 31,000  Level FlightAware
11:45AM 38.1830 141.0140 85° East 512 589 31,000  Level FlightAware
11:45AM 38.1890 141.1400 86° East 511 588 31,000  Level FlightAware
11:46AM 38.1990 141.3310 86° East 512 589 31,000  Level FlightAware
11:47AM 38.2080 141.5110 86° East 511 588 31,000  Level FlightAware
11:48AM 38.2130 141.6130 86° East 511 588 31,000  Level FlightAware
11:49AM 38.2220 141.8080 87° East 513 590 31,000  Level FlightAware
11:50AM 38.2300 141.9950 87° East 515 593 31,000  Level FlightAware
11:51AM 38.2360 142.1370 87° East 515 593 31,000  Level FlightAware
11:51AM 38.2410 142.2510 87° East 516 594 31,000  Level FlightAware
11:52AM 38.2470 142.4000 87° East 518 596 31,000  Level FlightAware
11:53AM 38.2510 142.4870 87° East 518 596 31,000  Level FlightAware
11:54AM 38.2560 142.6170 87° East 518 596 31,000  Level FlightAware
11:54AM 38.2590 142.6940 87° East 518 596 31,000  Level FlightAware
11:55AM 38.2640 142.7980 86° East 518 596 31,000  Level FlightAware
11:56AM 38.2680 142.9020 87° East 518 596 31,000  Level FlightAware
11:56AM 38.2720 143.0050 87° East 518 596 31,000  Level FlightAware
11:57AM 38.2760 143.1090 87° East 518 596 31,000  Level FlightAware
11:58AM 38.2810 143.2130 86° East 518 596 31,000  Level FlightAware
11:58AM 38.2850 143.3160 87° East 518 596 31,000  Level FlightAware
11:59AM 38.2900 143.4460 87° East 518 596 31,000  Level FlightAware
12:00PM 38.2940 143.5490 87° East 518 596 31,000  Level FlightAware
12:01PM 38.3000 143.6790 87° East 518 596 31,000  Level FlightAware
12:01PM 38.3030 143.7570 87° East 518 596 31,000  Level FlightAware
12:02PM 38.3070 143.8600 87° East 518 596 31,000  Level FlightAware
12:03PM 38.3110 143.9640 87° East 518 596 31,000  Level FlightAware
12:05PM 38.5398 144.1920 38° Northeast  Level Estimated
12:06PM 38.6541 144.3065 38° Northeast  Level Estimated
12:07PM 38.7682 144.4214 38° Northeast  Level Estimated
12:08PM 38.8823 144.5366 38° Northeast  Level Estimated
12:09PM 38.9962 144.6522 38° Northeast  Level Estimated
12:10PM 39.1100 144.7682 38° Northeast  Level Estimated
12:11PM 39.2237 144.8846 38° Northeast  Level Estimated
12:12PM 39.3372 145.0013 38° Northeast  Level Estimated
12:13PM 39.4507 145.1185 39° Northeast  Level Estimated
12:14PM 39.5640 145.2360 39° Northeast  Level Estimated
12:15PM 39.6772 145.3539 39° Northeast  Level Estimated
12:16PM 39.7903 145.4721 39° Northeast  Level Estimated
12:17PM 39.9033 145.5908 39° Northeast  Level Estimated
12:18PM 40.0161 145.7099 39° Northeast  Level Estimated
12:19PM 40.1288 145.8293 39° Northeast  Level Estimated
12:20PM 40.2415 145.9492 39° Northeast  Level Estimated
12:21PM 40.3539 146.0694 39° Northeast  Level Estimated
12:22PM 40.4663 146.1901 39° Northeast  Level Estimated
12:23PM 40.5785 146.3111 39° Northeast  Level Estimated
12:24PM 40.6906 146.4326 39° Northeast  Level Estimated
12:25PM 40.8026 146.5545 39° Northeast  Level Estimated
12:26PM 40.9145 146.6767 40° Northeast  Level Estimated
12:27PM 41.0262 146.7995 40° Northeast  Level Estimated
12:28PM 41.1378 146.9226 40° Northeast  Level Estimated
12:29PM 41.2492 147.0461 40° Northeast  Level Estimated
12:30PM 41.3606 147.1701 40° Northeast  Level Estimated
12:31PM 41.4718 147.2944 40° Northeast  Level Estimated
12:32PM 41.5828 147.4193 40° Northeast  Level Estimated
12:33PM 41.6937 147.5445 40° Northeast  Level Estimated
12:34PM 41.8045 147.6702 40° Northeast  Level Estimated
12:35PM 41.9152 147.7963 40° Northeast  Level Estimated
12:36PM 42.0257 147.9228 40° Northeast  Level Estimated
12:37PM 42.1361 148.0498 40° Northeast  Level Estimated
12:38PM 42.2463 148.1772 41° Northeast  Level Estimated
12:39PM 42.3564 148.3051 41° Northeast  Level Estimated
12:40PM 42.4663 148.4334 41° Northeast  Level Estimated
12:41PM 42.5761 148.5622 41° Northeast  Level Estimated
12:42PM 42.6858 148.6914 41° Northeast  Level Estimated
12:43PM 42.7953 148.8211 41° Northeast  Level Estimated
12:44PM 42.9047 148.9512 41° Northeast  Level Estimated
12:45PM 43.0139 149.0818 41° Northeast  Level Estimated
12:46PM 43.1230 149.2129 41° Northeast  Level Estimated
12:47PM 43.2319 149.3445 41° Northeast  Level Estimated
12:48PM 43.3406 149.4765 41° Northeast  Level Estimated
12:49PM 43.4492 149.6089 42° Northeast  Level Estimated
12:50PM 43.5577 149.7419 42° Northeast  Level Estimated
12:51PM 43.6660 149.8754 42° Northeast  Level Estimated
12:52PM 43.7742 150.0093 42° Northeast  Level Estimated
12:53PM 43.8822 150.1437 42° Northeast  Level Estimated
12:54PM 43.9900 150.2786 42° Northeast  Level Estimated
12:55PM 44.0977 150.4139 42° Northeast  Level Estimated
12:56PM 44.2052 150.5498 42° Northeast  Level Estimated
12:57PM 44.3125 150.6862 42° Northeast  Level Estimated
12:58PM 44.4197 150.8231 42° Northeast  Level Estimated
12:59PM 44.5268 150.9604 42° Northeast  Level Estimated
01:00PM 44.6336 151.0983 43° Northeast  Level Estimated
01:01PM 44.7403 151.2367 43° Northeast  Level Estimated
01:02PM 44.8469 151.3756 43° Northeast  Level Estimated
01:03PM 44.9532 151.5150 43° Northeast  Level Estimated
01:04PM 45.0594 151.6550 43° Northeast  Level Estimated
01:05PM 45.1654 151.7954 43° Northeast  Level Estimated
01:06PM 45.2713 151.9364 43° Northeast  Level Estimated
01:07PM 45.3769 152.0779 43° Northeast  Level Estimated
01:08PM 45.4824 152.2199 43° Northeast  Level Estimated
01:09PM 45.5877 152.3625 43° Northeast  Level Estimated
01:10PM 45.6929 152.5056 44° Northeast  Level Estimated
01:11PM 45.7979 152.6492 44° Northeast  Level Estimated
01:12PM 45.9026 152.7934 44° Northeast  Level Estimated
01:13PM 46.0072 152.9381 44° Northeast  Level Estimated
01:14PM 46.1116 153.0834 44° Northeast  Level Estimated
01:15PM 46.2159 153.2292 44° Northeast  Level Estimated
01:16PM 46.3199 153.3756 44° Northeast  Level Estimated
01:17PM 46.4238 153.5225 44° Northeast  Level Estimated
01:18PM 46.5274 153.6700 44° Northeast  Level Estimated
01:19PM 46.6309 153.8181 44° Northeast  Level Estimated
01:20PM 46.7342 153.9667 45° Northeast  Level Estimated
01:21PM 46.8373 154.1159 45° Northeast  Level Estimated
01:22PM 46.9402 154.2657 45° Northeast  Level Estimated
01:23PM 47.0429 154.4160 45° Northeast  Level Estimated
01:24PM 47.1454 154.5669 45° Northeast  Level Estimated
01:25PM 47.2477 154.7184 45° Northeast  Level Estimated
01:26PM 47.3498 154.8705 45° Northeast  Level Estimated
01:27PM 47.4517 155.0232 45° Northeast  Level Estimated
01:28PM 47.5534 155.1765 45° Northeast  Level Estimated
01:29PM 47.6549 155.3304 46° Northeast  Level Estimated
01:30PM 47.7562 155.4848 46° Northeast  Level Estimated
01:31PM 47.8573 155.6399 46° Northeast  Level Estimated
01:32PM 47.9581 155.7956 46° Northeast  Level Estimated
01:33PM 48.0588 155.9518 46° Northeast  Level Estimated
01:34PM 48.1592 156.1087 46° Northeast  Level Estimated
01:35PM 48.2595 156.2662 46° Northeast  Level Estimated
01:36PM 48.3595 156.4244 46° Northeast  Level Estimated
01:37PM 48.4593 156.5831 46° Northeast  Level Estimated
01:38PM 48.5589 156.7425 47° Northeast  Level Estimated
01:39PM 48.6582 156.9025 47° Northeast  Level Estimated
01:40PM 48.7574 157.0631 47° Northeast  Level Estimated
01:41PM 48.8563 157.2244 47° Northeast  Level Estimated
01:42PM 48.9550 157.3863 47° Northeast  Level Estimated
01:43PM 49.0534 157.5488 47° Northeast  Level Estimated
01:44PM 49.1517 157.7120 47° Northeast  Level Estimated
01:45PM 49.2497 157.8759 47° Northeast  Level Estimated
01:46PM 49.3474 158.0404 48° Northeast  Level Estimated
01:47PM 49.4450 158.2055 48° Northeast  Level Estimated
01:48PM 49.5423 158.3713 48° Northeast  Level Estimated
01:49PM 49.6393 158.5378 48° Northeast  Level Estimated
01:50PM 49.7361 158.7049 48° Northeast  Level Estimated
01:51PM 49.8327 158.8727 48° Northeast  Level Estimated
01:52PM 49.9290 159.0412 48° Northeast  Level Estimated
01:53PM 50.0251 159.2103 48° Northeast  Level Estimated
01:54PM 50.1210 159.3801 49° Northeast  Level Estimated
01:55PM 50.2166 159.5506 49° Northeast  Level Estimated
01:55PM 48.2833 160.6833 54° Northeast 488 562 33,000  Level Anchorage Center
01:56PM 50.3119 159.7218 49° Northeast  Level Estimated
01:57PM 50.4070 159.8937 49° Northeast  Level Estimated
01:58PM 50.5018 160.0662 49° Northeast  Level Estimated
01:59PM 50.5964 160.2395 49° Northeast  Level Estimated
02:00PM 50.6907 160.4134 49° Northeast  Level Estimated
02:01PM 50.7848 160.5881 50° Northeast  Level Estimated
02:02PM 49.0644 162.3533 55° Northeast 488 562 33,000  Level FlightAware Transoceanic
02:03PM 49.1412 162.5231 55° Northeast 488 562 33,000  Level FlightAware Transoceanic
02:04PM 49.2177 162.6935 56° Northeast 488 562 33,000  Level FlightAware Transoceanic
02:05PM 49.2940 162.8644 56° Northeast 488 562 33,000  Level FlightAware Transoceanic
02:06PM 49.3700 163.0358 56° Northeast 488 562 33,000  Level FlightAware Transoceanic
02:07PM 49.4457 163.2078 56° Northeast 488 562 33,000  Level FlightAware Transoceanic
02:08PM 49.5212 163.3803 56° Northeast 488 562 33,000  Level FlightAware Transoceanic
02:09PM 49.5965 163.5533 56° Northeast 488 562 33,000  Level FlightAware Transoceanic
02:10PM 49.6715 163.7269 56° Northeast 488 562 33,000  Level FlightAware Transoceanic
02:11PM 49.7462 163.9010 56° Northeast 488 562 33,000  Level FlightAware Transoceanic
02:12PM 49.8206 164.0757 57° Northeast 488 562 33,000  Level FlightAware Transoceanic
02:13PM 49.8949 164.2508 57° Northeast 488 562 33,000  Level FlightAware Transoceanic
02:14PM 49.9688 164.4265 57° Northeast 488 562 33,000  Level FlightAware Transoceanic
02:15PM 50.0424 164.6028 57° Northeast 488 562 33,000  Level FlightAware Transoceanic
02:16PM 50.1159 164.7796 57° Northeast 488 562 33,000  Level FlightAware Transoceanic
02:17PM 50.1890 164.9569 57° Northeast 488 562 33,000  Level FlightAware Transoceanic
02:18PM 50.2618 165.1348 57° Northeast 488 562 33,000  Level FlightAware Transoceanic
02:19PM 50.3344 165.3132 58° Northeast 488 562 33,000  Level FlightAware Transoceanic
02:20PM 50.4067 165.4922 58° Northeast 488 562 33,000  Level FlightAware Transoceanic
02:21PM 50.4788 165.6717 58° Northeast 488 562 33,000  Level FlightAware Transoceanic
02:22PM 50.5506 165.8518 58° Northeast 488 562 33,000  Level FlightAware Transoceanic
02:23PM 50.6220 166.0324 58° Northeast 488 562 33,000  Level FlightAware Transoceanic
02:24PM 50.6932 166.2135 58° Northeast 488 562 33,000  Level FlightAware Transoceanic
02:25PM 50.7642 166.3952 58° Northeast 488 562 33,000  Level FlightAware Transoceanic
02:26PM 50.8348 166.5775 59° Northeast 488 562 33,000  Level FlightAware Transoceanic
02:27PM 50.9052 166.7603 59° Northeast 488 562 33,000  Level FlightAware Transoceanic
02:28PM 50.9752 166.9437 59° Northeast 488 562 33,000  Level FlightAware Transoceanic
02:29PM 51.0450 167.1276 59° Northeast 488 562 33,000  Level FlightAware Transoceanic
02:30PM 51.1145 167.3121 59° Northeast 488 562 33,000  Level FlightAware Transoceanic
02:31PM 51.1837 167.4971 59° Northeast 488 562 33,000  Level FlightAware Transoceanic
02:32PM 51.2526 167.6827 59° Northeast 488 562 33,000  Level FlightAware Transoceanic
02:33PM 51.3212 167.8688 60° Northeast 488 562 33,000  Level FlightAware Transoceanic
02:34PM 51.3895 168.0555 60° Northeast 488 562 33,000  Level FlightAware Transoceanic
02:35PM 51.4576 168.2427 60° Northeast 488 562 33,000  Level FlightAware Transoceanic
02:36PM 51.5253 168.4305 60° Northeast 488 562 33,000  Level FlightAware Transoceanic
02:37PM 51.5927 168.6189 60° Northeast 488 562 33,000  Level FlightAware Transoceanic
02:37PM 51.5500 168.5000 61° Northeast 470 541 33,000  Level Anchorage Center
02:38PM 51.6598 168.8078 60° Northeast 488 562 33,000  Level FlightAware Transoceanic
02:38PM 51.6000 168.6500 62° Northeast 470 541 33,000  Level Anchorage Center
02:39PM 51.7266 168.9973 60° Northeast 488 562 33,000  Level FlightAware Transoceanic
02:39PM 51.6667 168.8500 62° Northeast 460 529 33,000  Level Anchorage Center
02:40PM 51.7931 169.1873 61° Northeast 488 562 33,000  Level FlightAware Transoceanic
02:40PM 51.7167 169.0167 64° Northeast 470 541 33,000  Level Anchorage Center
02:41PM 51.8593 169.3779 61° Northeast 488 562 33,000  Level FlightAware Transoceanic
02:41PM 51.8000 169.2000 54° Northeast 480 552 33,000  Level Anchorage Center
02:42PM 51.9252 169.5691 61° Northeast 488 562 33,000  Level FlightAware Transoceanic
02:42PM 51.8500 169.3667 64° Northeast 470 541 33,000  Level Anchorage Center
02:43PM 51.9167 169.5667 62° Northeast 470 541 33,000  Level Anchorage Center
02:44PM 51.9667 169.7333 64° Northeast 470 541 33,000  Level Anchorage Center
02:45PM 52.0500 169.9333 56° Northeast 470 541 33,000  Level Anchorage Center
02:46PM 52.1167 170.1333 61° Northeast 470 541 33,000  Level Anchorage Center
02:47PM 52.1667 170.3000 64° Northeast 470 541 33,000  Level Anchorage Center
02:48PM 52.2333 170.5000 61° Northeast 470 541 33,000  Level Anchorage Center
02:49PM 52.3000 170.6500 54° Northeast 460 529 33,000  Level Anchorage Center
02:50PM 52.3833 170.8333 53° Northeast 470 541 33,000  Level Anchorage Center
02:51PM 52.4500 170.9833 54° Northeast 470 541 33,000  Level Anchorage Center
02:52PM 52.5333 171.1667 53° Northeast 450 518 33,000  Level Anchorage Center
02:53PM 52.6000 171.3167 54° Northeast 480 552 33,000  Level Anchorage Center
02:54PM 52.6833 171.5000 53° Northeast 470 541 33,000  Level Anchorage Center
02:55PM 52.7333 171.6500 61° Northeast 450 518 33,000  Level Anchorage Center
02:56PM 52.8167 171.8333 53° Northeast 460 529 33,000  Level Anchorage Center
02:57PM 52.9000 172.0167 53° Northeast 450 518 33,000  Level Anchorage Center
02:58PM 52.9667 172.1667 54° Northeast 450 518 33,000  Level Anchorage Center
02:59PM 53.0333 172.3667 61° Northeast 450 518 33,000  Level Anchorage Center
03:00PM 53.1000 172.5167 53° Northeast 460 529 33,000  Level Anchorage Center
03:01PM 53.1833 172.7000 53° Northeast 460 529 33,000  Level Anchorage Center
03:02PM 53.2500 172.8500 53° Northeast 450 518 33,000  Level Anchorage Center
03:03PM 53.3333 173.0333 53° Northeast 450 518 33,000  Level Anchorage Center
03:04PM 53.3833 173.2000 63° Northeast 460 529 33,000  Level Anchorage Center
03:05PM 53.4667 173.3833 53° Northeast 460 529 33,000  Level Anchorage Center
03:06PM 53.5333 173.5333 53° Northeast 460 529 33,000  Level Anchorage Center
03:07PM 53.6000 173.7333 61° Northeast 450 518 33,000  Level Anchorage Center
03:08PM 53.6667 173.9000 56° Northeast 460 529 33,000  Level Anchorage Center
03:09PM 53.7333 174.1000 61° Northeast 460 529 33,000  Level Anchorage Center
03:10PM 53.8167 174.3000 55° Northeast 460 529 33,000  Level Anchorage Center
03:11PM 53.8667 174.4500 60° Northeast 460 529 33,000  Level Anchorage Center
03:12PM 53.9500 174.6500 55° Northeast 440 506 33,000  Level Anchorage Center
03:13PM 54.0000 174.8167 63° Northeast 460 529 33,000  Level Anchorage Center
03:14PM 54.0833 175.0167 55° Northeast 450 518 33,000  Level Anchorage Center
03:15PM 54.1333 175.1667 60° Northeast 450 518 33,000  Level Anchorage Center
03:16PM 54.2000 175.3833 62° Northeast 460 529 33,000  Level Anchorage Center
03:17PM 54.2667 175.5333 53° Northeast 460 529 33,000  Level Anchorage Center
03:18PM 54.3333 175.7333 60° Northeast 450 518 33,000 60 Level Anchorage Center
03:19PM 54.4167 175.9500 56° Northeast 460 529 33,200 600 Climbing Anchorage Center
03:20PM 54.4667 176.1167 63° Northeast 470 541 34,200 1,200 Climbing Anchorage Center
03:21PM 54.5333 176.3333 62° Northeast 460 529 35,600 900 Climbing Anchorage Center
03:22PM 54.6000 176.5000 55° Northeast 470 541 36,000 180 Climbing Anchorage Center
03:23PM 54.6667 176.7000 60° Northeast 470 541 36,000  Level Anchorage Center
03:24PM 54.7333 176.8833 58° Northeast 460 529 36,000  Level Anchorage Center
03:25PM 54.8000 177.0833 60° Northeast 470 541 36,000  Level Anchorage Center
03:26PM 54.8500 177.2667 65° Northeast 470 541 36,000  Level Anchorage Center
03:27PM 54.9333 177.4833 56° Northeast 470 541 36,000  Level Anchorage Center
03:28PM 54.9833 177.6500 62° Northeast 470 541 36,000  Level Anchorage Center
03:29PM 55.0500 177.8667 62° Northeast 470 541 36,000  Level Anchorage Center
03:30PM 55.1000 178.0500 64° Northeast 470 541 36,000  Level Anchorage Center
03:32PM 55.1966 178.3470 60° Northeast  Level FlightAware Approximate
03:39PM 55.6578 179.8413 61° Northeast  Level FlightAware Approximate
03:40PM 55.7221 -179.9422 62° Northeast  Level FlightAware Approximate
03:41PM 55.7859 -179.7250 62° Northeast  Level FlightAware Approximate
03:42PM 55.8493 -179.5071 63° Northeast  Level FlightAware Approximate
03:43PM 55.9124 -179.2885 63° Northeast  Level FlightAware Approximate
03:44PM 55.9750 -179.0692 63° Northeast  Level FlightAware Approximate
03:45PM 56.0373 -178.8491 63° Northeast  Level FlightAware Approximate
03:46PM 56.0992 -178.6284 63° Northeast  Level FlightAware Approximate
03:47PM 56.1607 -178.4070 63° Northeast  Level FlightAware Approximate
03:48PM 56.2218 -178.1848 64° Northeast  Level FlightAware Approximate
03:49PM 56.2825 -177.9619 64° Northeast  Level FlightAware Approximate
03:50PM 56.3428 -177.7384 64° Northeast  Level FlightAware Approximate
03:51PM 56.4026 -177.5141 64° Northeast  Level FlightAware Approximate
03:52PM 56.4621 -177.2891 64° Northeast  Level FlightAware Approximate
03:53PM 56.5212 -177.0634 65° Northeast  Level FlightAware Approximate
03:54PM 56.5799 -176.8371 65° Northeast  Level FlightAware Approximate
03:55PM 56.6381 -176.6100 65° Northeast  Level FlightAware Approximate
03:56PM 56.6959 -176.3822 65° Northeast  Level FlightAware Approximate
03:57PM 56.7532 -176.1536 65° Northeast  Level FlightAware Approximate
03:58PM 56.8099 -175.9242 66° East  Level FlightAware Approximate
03:59PM 56.8662 -175.6941 66° East  Level FlightAware Approximate
04:00PM 56.9221 -175.4633 66° East  Level FlightAware Approximate
04:01PM 56.9775 -175.2318 66° East  Level FlightAware Approximate
04:02PM 57.0325 -174.9996 66° East  Level FlightAware Approximate
04:02PM 56.9833 -175.1167 67° East 470 541 36,000  Level Anchorage Center
04:03PM 57.0871 -174.7668 67° East  Level FlightAware Approximate
04:03PM 57.0500 -174.8833 62° Northeast 480 552 36,000  Level Anchorage Center
04:04PM 57.1412 -174.5332 67° East  Level FlightAware Approximate
04:04PM 57.1000 -174.6667 67° East 470 541 36,000  Level Anchorage Center
04:05PM 57.1950 -174.2990 67° East  Level FlightAware Approximate
04:05PM 57.1500 -174.4333 68° East 480 552 36,000  Level Anchorage Center
04:06PM 57.2482 -174.0641 67° East  Level FlightAware Approximate
04:06PM 57.2000 -174.2000 68° East 470 541 36,000  Level Anchorage Center
04:07PM 57.3011 -173.8285 67° East  Level FlightAware Approximate
04:07PM 57.2500 -173.9667 68° East 480 552 36,000  Level Anchorage Center
04:08PM 57.3000 -173.7833 63° Northeast 480 552 36,000  Level Anchorage Center
04:09PM 57.3500 -173.5667 67° East 480 552 36,000  Level Anchorage Center
04:10PM 57.4000 -173.3333 68° East 480 552 36,000  Level Anchorage Center
04:11PM 57.4500 -173.1000 68° East 480 552 36,000  Level Anchorage Center
04:12PM 57.5000 -172.8667 68° East 480 552 36,000  Level Anchorage Center
04:13PM 57.5500 -172.6333 68° East 470 541 36,000  Level Anchorage Center
04:14PM 57.6000 -172.4000 68° East 490 564 36,000  Level Anchorage Center
04:15PM 57.6500 -172.1667 68° East 480 552 36,000  Level Anchorage Center
04:16PM 57.7000 -171.9333 68° East 480 552 36,000  Level Anchorage Center
04:17PM 57.7500 -171.6833 69° East 490 564 36,000  Level Anchorage Center
04:18PM 57.8000 -171.4500 68° East 490 564 36,000  Level Anchorage Center
04:19PM 57.8500 -171.2000 69° East 490 564 36,000  Level Anchorage Center
04:20PM 57.9000 -170.9500 69° East 490 564 36,000  Level Anchorage Center
04:21PM 57.9500 -170.7000 69° East 500 575 36,000  Level Anchorage Center
04:22PM 58.0000 -170.4667 68° East 500 575 36,000  Level Anchorage Center
04:23PM 58.0667 -170.2167 63° Northeast 500 575 36,000  Level Anchorage Center
04:24PM 58.1167 -169.9667 69° East 500 575 36,000  Level Anchorage Center
04:25PM 58.1667 -169.7167 69° East 500 575 36,000  Level Anchorage Center
04:26PM 58.2167 -169.4667 69° East 490 564 36,000  Level Anchorage Center
04:27PM 58.2667 -169.2167 69° East 490 564 36,000  Level Anchorage Center
04:28PM 58.3167 -168.9833 68° East 480 552 36,000  Level Anchorage Center
04:29PM 58.3667 -168.7500 68° East 480 552 36,000  Level Anchorage Center
04:30PM 58.4167 -168.5167 68° East 480 552 36,000  Level Anchorage Center
04:31PM 58.4667 -168.2667 69° East 480 552 36,000  Level Anchorage Center
04:32PM 58.5000 -168.0667 72° East 490 564 36,000  Level Anchorage Center
04:34PM 58.5833 -167.6333 70° East 480 552 36,000  Level Anchorage Center
04:34PM 58.6000 -167.5333 72° East 480 552 36,000  Level Anchorage Center
04:35PM 58.6500 -167.2833 69° East 480 552 36,000  Level Anchorage Center
04:36PM 58.7000 -167.0333 69° East 480 552 36,000  Level Anchorage Center
04:37PM 58.7333 -166.8000 75° East 480 552 36,000  Level Anchorage Center
04:38PM 58.7667 -166.5833 73° East 490 564 36,000  Level Anchorage Center
04:39PM 58.8333 -166.2833 67° East 480 552 36,000  Level Anchorage Center
04:40PM 58.8667 -166.0333 75° East 490 564 36,000  Level Anchorage Center
04:41PM 58.9000 -165.8833 67° East 480 552 36,000  Level Anchorage Center
04:42PM 58.9333 -165.6333 75° East 480 552 36,000  Level Anchorage Center
04:43PM 58.9833 -165.3833 69° East 490 564 36,000  Level Anchorage Center
04:44PM 59.0333 -165.1333 69° East 480 552 36,000  Level Anchorage Center
04:45PM 59.0667 -164.8833 75° East 480 552 36,000  Level Anchorage Center
04:46PM 59.1167 -164.6333 69° East 490 564 36,000  Level Anchorage Center
04:47PM 59.1500 -164.3833 75° East 490 564 36,000  Level Anchorage Center
04:48PM 59.2000 -164.1167 70° East 490 564 36,000  Level Anchorage Center
04:49PM 59.2333 -163.8667 75° East 490 564 36,000  Level Anchorage Center
04:50PM 59.2833 -163.6000 70° East 490 564 36,000  Level Anchorage Center
04:51PM 59.3167 -163.3500 75° East 490 564 36,000  Level Anchorage Center
04:52PM 59.3667 -163.0667 71° East 500 575 36,000  Level Anchorage Center
04:53PM 59.4000 -162.8167 75° East 500 575 36,000  Level Anchorage Center
04:54PM 59.4500 -162.5500 70° East 500 575 36,000  Level Anchorage Center
04:55PM 59.5000 -162.2833 70° East 490 564 36,000  Level Anchorage Center
04:56PM 59.5333 -162.0167 76° East 500 575 36,000  Level Anchorage Center
04:57PM 59.5833 -161.7667 68° East 500 575 36,000  Level Anchorage Center
04:58PM 59.6167 -161.5000 76° East 500 575 36,000  Level Anchorage Center
04:59PM 59.6667 -161.2333 70° East 500 575 36,000  Level Anchorage Center
05:00PM 59.7000 -160.9667 76° East 500 575 36,000  Level Anchorage Center
05:01PM 59.7500 -160.7000 69° East 500 575 36,000  Level Anchorage Center
05:02PM 59.7833 -160.4333 76° East 500 575 36,000  Level Anchorage Center
05:03PM 59.8167 -160.1667 76° East 490 564 36,000  Level Anchorage Center
05:04PM 59.8667 -159.8833 71° East 510 587 36,000  Level Anchorage Center
05:05PM 59.9000 -159.6167 76° East 490 564 36,000  Level Anchorage Center
05:06PM 59.9333 -159.3500 76° East 500 575 36,000  Level Anchorage Center
05:07PM 59.9833 -159.0833 69° East 490 564 36,000  Level Anchorage Center
05:08PM 60.0167 -158.8167 76° East 490 564 36,000  Level Anchorage Center
05:09PM 60.0500 -158.5500 76° East 500 575 36,000  Level Anchorage Center
05:10PM 60.0833 -158.2833 76° East 510 587 36,000  Level Anchorage Center
05:11PM 60.1167 -158.0000 77° East 510 587 36,000  Level Anchorage Center
05:12PM 60.1500 -157.7167 77° East 510 587 36,000  Level Anchorage Center
05:13PM 60.1833 -157.4500 76° East 510 587 36,000  Level Anchorage Center
05:14PM 60.2167 -157.1667 77° East 520 598 36,000  Level Anchorage Center
05:15PM 60.2500 -156.8833 77° East 500 575 36,000  Level Anchorage Center
05:16PM 60.2833 -156.6000 77° East 520 598 36,000  Level Anchorage Center
05:17PM 60.3167 -156.3167 77° East 520 598 36,000  Level Anchorage Center
05:18PM 60.3500 -156.0333 77° East 510 587 36,000 -240 Level Anchorage Center
05:23PM 60.5340 -154.4070 77° East 516 594 34,600 -420 Descending FlightAware
05:24PM 60.5630 -154.1930 74° East 509 586 33,500 -1,500 Descending FlightAware
05:25PM 60.5870 -154.0110 75° East 500 575 32,500 -1,440 Descending FlightAware
05:25PM 60.6100 -153.8250 76° East 490 564 31,600 -1,380 Descending FlightAware
05:26PM 60.6350 -153.6340 75° East 485 558 30,600 -1,440 Descending FlightAware
05:27PM 60.6590 -153.4420 76° East 489 563 29,600 -1,440 Descending FlightAware
05:27PM 60.6830 -153.2450 76° East 489 563 28,600 -1,800 Descending FlightAware
05:28PM 60.7050 -153.0670 76° East 484 557 27,100 -2,220 Descending FlightAware
05:29PM 60.7270 -152.8830 76° East 475 547 25,500 -2,220 Descending FlightAware
05:30PM 60.7490 -152.6930 77° East 462 532 24,000 -2,280 Descending FlightAware
05:30PM 60.7690 -152.5240 76° East 454 522 22,500 -2,220 Descending FlightAware
05:31PM 60.7900 -152.3460 76° East 443 510 20,900 -2,220 Descending FlightAware
05:32PM 60.8100 -152.1730 77° East 434 499 19,400 -2,220 Descending FlightAware
05:32PM 60.8290 -151.9990 77° East 420 483 17,800 -1,920 Descending FlightAware
05:33PM 60.8470 -151.8420 77° East 404 465 16,700 -1,680 Descending FlightAware
05:34PM 60.8630 -151.6990 77° East 390 449 15,600 -1,800 Descending FlightAware
05:34PM 60.8800 -151.5390 78° East 380 437 14,200 -1,920 Descending FlightAware
05:35PM 60.8960 -151.4000 77° East 372 428 12,900 -1,920 Descending FlightAware
05:36PM 60.9230 -151.2560 69° East 361 415 11,500 -1,560 Descending FlightAware
05:37PM 60.9520 -151.1270 65° Northeast 342 394 10,700 -900 Descending FlightAware
05:37PM 60.9760 -151.0470 58° Northeast 322 371 10,500 -480 Descending FlightAware
05:38PM 61.0170 -150.9670 43° Northeast 295 339 10,200 -780 Descending FlightAware
05:38PM 61.0460 -150.9340 29° Northeast 278 320 9,700 -1,200 Descending FlightAware
05:38PM 61.0650 -150.9190 21° North 281 323 9,400 -960 Descending FlightAware
05:39PM 61.0990 -150.8910 22° Northeast 262 302 9,000 -780 Descending FlightAware
05:40PM 61.1430 -150.8550 22° Northeast 239 275 8,500 -900 Descending FlightAware
05:40PM 61.1730 -150.8310 21° North 225 259 8,000 -840 Descending FlightAware
05:41PM 61.1980 -150.7980 32° Northeast 230 265 7,700 -780 Descending FlightAware
05:41PM 61.2020 -150.7740 71° East 222 255 7,500 -900 Descending FlightAware
05:41PM 61.1970 -150.7120 99° East 209 241 7,100 -960 Descending FlightAware
05:41PM 61.1940 -150.6820 102° East 211 243 6,800 -1,080 Descending FlightAware
05:42PM 61.1880 -150.6350 105° East 210 242 6,400 -1,020 Descending FlightAware
05:42PM 61.1800 -150.5750 105° East 204 235 5,900 -960 Descending FlightAware
05:43PM 61.1770 -150.5510 105° East 200 230 5,700 -1,140 Descending FlightAware
05:44PM 61.1670 -150.3420 90° East 199 229 3,600 -1,200 Descending FlightAware
05:45PM 61.1667 -150.0186 90° East  Level FlightAware Approximate
05:45PM 61.1670 -150.3120 90° East 193 222 3,300  Level FlightAware
05:45PM 61.1670 -150.2580 90° East 180 207 2,800 -1,020 Descending FlightAware
05:46PM 61.1670 -150.2180 90° East 170 196 2,400 -1,020 Descending FlightAware
05:46PM 61.1670 -150.1690 90° East 168 193 1,900 -1,020 Descending FlightAware
05:47PM 61.1680 -150.1320 87° East 154 177 1,500 -840 Descending FlightAware
05:47PM 61.1680 -150.1170 90° East 149 171 1,300 -600 Descending FlightAware